sensor_id;sensor_type;location;lat;lon;timestamp;P1;durP1;ratioP1;P2;durP2;ratioP2
14015;SDS011;7083;48.854;9.158;2023-03-04T00:00:52;1999.90;;;999.90;;
14015;SDS011;7083;48.854;9.158;2023-03-04T00:03:19;1999.90;;;999.90;;
14015;SDS011;7083;48.854;9.158;2023-03-04T00:05:45;1999.90;;;999.90;;
14015;SDS011;7083;48.854;9.158;2023-03-04T00:08:12;1999.90;;;999.90;;
14015;SDS011;7083;48.854;9.158;2023-03-04T00:10:40;1999.90;;;999.90;;
14015;SDS011;7083;48.854;9.158;2023-03-04T00:13:07;1999.90;;;999.90;;
14015;SDS011;7083;48.854;9.158;2023-03-04T00:15:34;1999.90;;;999.90;;
14015;SDS011;7083;48.854;9.158;2023-03-04T00:18:00;1999.90;;;999.90;;
14015;SDS011;7083;48.854;9.158;2023-03-04T00:20:27;1999.90;;;999.90;;
14015;SDS011;7083;48.854;9.158;2023-03-04T00:22:54;1999.90;;;999.90;;
14015;SDS011;7083;48.854;9.158;2023-03-04T00:25:20;1999.90;;;999.90;;
14015;SDS011;7083;48.854;9.158;2023-03-04T00:27:48;1999.90;;;999.90;;
14015;SDS011;7083;48.854;9.158;2023-03-04T00:30:15;1999.90;;;999.90;;
14015;SDS011;7083;48.854;9.158;2023-03-04T00:32:42;1999.90;;;999.90;;
14015;SDS011;7083;48.854;9.158;2023-03-04T00:35:09;1999.90;;;999.90;;
14015;SDS011;7083;48.854;9.158;2023-03-04T00:37:36;1999.90;;;999.90;;
14015;SDS011;7083;48.854;9.158;2023-03-04T00:40:03;1999.90;;;999.90;;
14015;SDS011;7083;48.854;9.158;2023-03-04T00:42:30;1999.90;;;999.90;;
14015;SDS011;7083;48.854;9.158;2023-03-04T00:44:58;1999.90;;;999.90;;
14015;SDS011;7083;48.854;9.158;2023-03-04T00:47:25;1999.90;;;999.90;;
14015;SDS011;7083;48.854;9.158;2023-03-04T00:49:52;1999.90;;;999.90;;
14015;SDS011;7083;48.854;9.158;2023-03-04T00:52:18;1999.90;;;999.90;;
14015;SDS011;7083;48.854;9.158;2023-03-04T00:54:45;1999.90;;;999.90;;
14015;SDS011;7083;48.854;9.158;2023-03-04T00:57:12;1999.90;;;999.90;;
14015;SDS011;7083;48.854;9.158;2023-03-04T00:59:38;1999.90;;;999.90;;
14015;SDS011;7083;48.854;9.158;2023-03-04T01:02:09;1999.90;;;999.90;;
14015;SDS011;7083;48.854;9.158;2023-03-04T01:04:36;1999.90;;;999.90;;
14015;SDS011;7083;48.854;9.158;2023-03-04T01:07:03;1999.90;;;999.90;;
14015;SDS011;7083;48.854;9.158;2023-03-04T01:09:30;1999.90;;;999.90;;
14015;SDS011;7083;48.854;9.158;2023-03-04T01:11:56;1999.90;;;999.90;;
14015;SDS011;7083;48.854;9.158;2023-03-04T01:14:23;1999.90;;;999.90;;
14015;SDS011;7083;48.854;9.158;2023-03-04T01:16:50;1999.90;;;999.90;;
14015;SDS011;7083;48.854;9.158;2023-03-04T01:19:19;1999.90;;;999.90;;
14015;SDS011;7083;48.854;9.158;2023-03-04T01:21:45;1999.90;;;999.90;;
14015;SDS011;7083;48.854;9.158;2023-03-04T01:24:12;1999.90;;;999.90;;
14015;SDS011;7083;48.854;9.158;2023-03-04T01:26:39;1999.90;;;999.90;;
14015;SDS011;7083;48.854;9.158;2023-03-04T01:29:06;1999.90;;;999.90;;
14015;SDS011;7083;48.854;9.158;2023-03-04T01:31:32;1999.90;;;999.90;;
14015;SDS011;7083;48.854;9.158;2023-03-04T01:33:59;1999.90;;;999.90;;
14015;SDS011;7083;48.854;9.158;2023-03-04T01:36:27;1999.90;;;999.90;;
14015;SDS011;7083;48.854;9.158;2023-03-04T01:38:54;1999.90;;;999.90;;
14015;SDS011;7083;48.854;9.158;2023-03-04T01:41:23;1999.90;;;999.90;;
14015;SDS011;7083;48.854;9.158;2023-03-04T01:43:52;1999.90;;;999.90;;
14015;SDS011;7083;48.854;9.158;2023-03-04T01:46:20;1999.90;;;999.90;;
14015;SDS011;7083;48.854;9.158;2023-03-04T01:48:47;1999.90;;;999.90;;
14015;SDS011;7083;48.854;9.158;2023-03-04T01:51:15;1999.90;;;999.90;;
14015;SDS011;7083;48.854;9.158;2023-03-04T01:53:45;1999.90;;;999.90;;
14015;SDS011;7083;48.854;9.158;2023-03-04T01:56:21;1999.90;;;999.90;;
14015;SDS011;7083;48.854;9.158;2023-03-04T02:01:37;1999.90;;;999.90;;
14015;SDS011;7083;48.854;9.158;2023-03-04T02:04:05;1999.90;;;999.90;;
14015;SDS011;7083;48.854;9.158;2023-03-04T02:06:32;1999.90;;;999.90;;
14015;SDS011;7083;48.854;9.158;2023-03-04T02:09:01;1999.90;;;999.90;;
14015;SDS011;7083;48.854;9.158;2023-03-04T02:11:29;1999.90;;;999.90;;
14015;SDS011;7083;48.854;9.158;2023-03-04T02:13:56;1999.90;;;999.90;;
14015;SDS011;7083;48.854;9.158;2023-03-04T02:16:24;1999.90;;;999.90;;
14015;SDS011;7083;48.854;9.158;2023-03-04T02:18:51;1999.90;;;999.90;;
14015;SDS011;7083;48.854;9.158;2023-03-04T02:21:19;1999.90;;;999.90;;
14015;SDS011;7083;48.854;9.158;2023-03-04T02:23:50;1999.90;;;999.90;;
14015;SDS011;7083;48.854;9.158;2023-03-04T02:26:29;1999.90;;;999.90;;
14015;SDS011;7083;48.854;9.158;2023-03-04T02:28:58;1999.90;;;999.90;;
14015;SDS011;7083;48.854;9.158;2023-03-04T02:31:26;1999.90;;;999.90;;
14015;SDS011;7083;48.854;9.158;2023-03-04T02:33:57;1999.90;;;999.90;;
14015;SDS011;7083;48.854;9.158;2023-03-04T02:36:26;1999.90;;;999.90;;
14015;SDS011;7083;48.854;9.158;2023-03-04T02:38:54;1999.90;;;999.90;;
14015;SDS011;7083;48.854;9.158;2023-03-04T02:41:25;1999.90;;;999.90;;
14015;SDS011;7083;48.854;9.158;2023-03-04T02:43:55;1999.90;;;999.90;;
14015;SDS011;7083;48.854;9.158;2023-03-04T02:46:22;1999.90;;;999.90;;
14015;SDS011;7083;48.854;9.158;2023-03-04T02:48:49;1999.90;;;999.90;;
14015;SDS011;7083;48.854;9.158;2023-03-04T02:51:17;1999.90;;;999.90;;
14015;SDS011;7083;48.854;9.158;2023-03-04T02:53:44;1999.90;;;999.90;;
14015;SDS011;7083;48.854;9.158;2023-03-04T02:56:11;1999.90;;;999.90;;
14015;SDS011;7083;48.854;9.158;2023-03-04T02:58:37;1999.90;;;999.90;;
14015;SDS011;7083;48.854;9.158;2023-03-04T03:01:06;1999.90;;;999.90;;
14015;SDS011;7083;48.854;9.158;2023-03-04T03:03:33;1999.90;;;999.90;;
14015;SDS011;7083;48.854;9.158;2023-03-04T03:06:00;1999.90;;;999.90;;
14015;SDS011;7083;48.854;9.158;2023-03-04T03:08:27;1999.90;;;999.90;;
14015;SDS011;7083;48.854;9.158;2023-03-04T03:10:53;1999.90;;;999.90;;
14015;SDS011;7083;48.854;9.158;2023-03-04T03:13:20;1999.90;;;999.90;;
14015;SDS011;7083;48.854;9.158;2023-03-04T03:15:47;1999.90;;;999.90;;
14015;SDS011;7083;48.854;9.158;2023-03-04T03:18:15;1999.90;;;999.90;;
14015;SDS011;7083;48.854;9.158;2023-03-04T03:20:42;1999.90;;;999.90;;
14015;SDS011;7083;48.854;9.158;2023-03-04T03:23:08;1999.90;;;999.90;;
14015;SDS011;7083;48.854;9.158;2023-03-04T03:25:35;1999.90;;;999.90;;
14015;SDS011;7083;48.854;9.158;2023-03-04T03:28:02;1999.90;;;999.90;;
14015;SDS011;7083;48.854;9.158;2023-03-04T03:30:29;1999.90;;;999.90;;
14015;SDS011;7083;48.854;9.158;2023-03-04T03:32:56;1999.90;;;999.90;;
14015;SDS011;7083;48.854;9.158;2023-03-04T03:35:24;1999.90;;;999.90;;
14015;SDS011;7083;48.854;9.158;2023-03-04T03:37:50;1999.90;;;999.90;;
14015;SDS011;7083;48.854;9.158;2023-03-04T03:40:17;1999.90;;;999.90;;
14015;SDS011;7083;48.854;9.158;2023-03-04T03:42:44;1999.90;;;999.90;;
14015;SDS011;7083;48.854;9.158;2023-03-04T03:45:10;1999.90;;;999.90;;
14015;SDS011;7083;48.854;9.158;2023-03-04T03:47:37;1999.90;;;999.90;;
14015;SDS011;7083;48.854;9.158;2023-03-04T03:50:04;1999.90;;;999.90;;
14015;SDS011;7083;48.854;9.158;2023-03-04T03:52:33;1999.90;;;999.90;;
14015;SDS011;7083;48.854;9.158;2023-03-04T03:55:00;1999.90;;;999.90;;
14015;SDS011;7083;48.854;9.158;2023-03-04T03:57:26;1999.90;;;999.90;;
14015;SDS011;7083;48.854;9.158;2023-03-04T03:59:53;1999.90;;;999.90;;
14015;SDS011;7083;48.854;9.158;2023-03-04T04:02:21;1999.90;;;999.90;;
14015;SDS011;7083;48.854;9.158;2023-03-04T04:04:48;1999.90;;;999.90;;
14015;SDS011;7083;48.854;9.158;2023-03-04T04:07:15;1999.90;;;999.90;;
14015;SDS011;7083;48.854;9.158;2023-03-04T04:09:44;1999.90;;;999.90;;
14015;SDS011;7083;48.854;9.158;2023-03-04T04:12:12;1999.90;;;999.90;;
14015;SDS011;7083;48.854;9.158;2023-03-04T04:14:40;1999.90;;;999.90;;
14015;SDS011;7083;48.854;9.158;2023-03-04T04:17:08;1999.90;;;999.90;;
14015;SDS011;7083;48.854;9.158;2023-03-04T04:19:35;1999.90;;;999.90;;
14015;SDS011;7083;48.854;9.158;2023-03-04T04:22:05;1999.90;;;999.90;;
14015;SDS011;7083;48.854;9.158;2023-03-04T04:24:32;1999.90;;;999.90;;
14015;SDS011;7083;48.854;9.158;2023-03-04T04:27:00;1999.90;;;999.90;;
14015;SDS011;7083;48.854;9.158;2023-03-04T04:29:28;1999.90;;;999.90;;
14015;SDS011;7083;48.854;9.158;2023-03-04T04:31:55;1999.90;;;999.90;;
14015;SDS011;7083;48.854;9.158;2023-03-04T04:34:22;1999.90;;;999.90;;
14015;SDS011;7083;48.854;9.158;2023-03-04T04:36:49;1999.90;;;999.90;;
14015;SDS011;7083;48.854;9.158;2023-03-04T04:39:16;1999.90;;;999.90;;
14015;SDS011;7083;48.854;9.158;2023-03-04T04:41:43;1999.90;;;999.90;;
14015;SDS011;7083;48.854;9.158;2023-03-04T04:44:11;1999.90;;;999.90;;
14015;SDS011;7083;48.854;9.158;2023-03-04T04:46:39;1999.90;;;999.90;;
14015;SDS011;7083;48.854;9.158;2023-03-04T04:49:06;1999.90;;;999.90;;
14015;SDS011;7083;48.854;9.158;2023-03-04T04:51:34;1999.90;;;999.90;;
14015;SDS011;7083;48.854;9.158;2023-03-04T04:54:01;1999.90;;;999.90;;
14015;SDS011;7083;48.854;9.158;2023-03-04T04:56:29;1999.90;;;999.90;;
14015;SDS011;7083;48.854;9.158;2023-03-04T04:58:56;1999.90;;;999.90;;
14015;SDS011;7083;48.854;9.158;2023-03-04T05:01:25;1999.90;;;999.90;;
14015;SDS011;7083;48.854;9.158;2023-03-04T05:03:52;1999.90;;;999.90;;
14015;SDS011;7083;48.854;9.158;2023-03-04T05:06:20;1999.90;;;999.90;;
14015;SDS011;7083;48.854;9.158;2023-03-04T05:08:47;1999.90;;;999.90;;
14015;SDS011;7083;48.854;9.158;2023-03-04T05:11:15;1999.90;;;999.90;;
14015;SDS011;7083;48.854;9.158;2023-03-04T05:13:43;1999.90;;;999.90;;
14015;SDS011;7083;48.854;9.158;2023-03-04T05:16:10;1999.90;;;999.90;;
14015;SDS011;7083;48.854;9.158;2023-03-04T05:18:38;1999.90;;;999.90;;
14015;SDS011;7083;48.854;9.158;2023-03-04T05:21:05;1999.90;;;999.90;;
14015;SDS011;7083;48.854;9.158;2023-03-04T05:23:34;1999.90;;;999.90;;
14015;SDS011;7083;48.854;9.158;2023-03-04T05:26:02;1999.90;;;999.90;;
14015;SDS011;7083;48.854;9.158;2023-03-04T05:28:31;1999.90;;;999.90;;
14015;SDS011;7083;48.854;9.158;2023-03-04T05:30:58;1999.90;;;999.90;;
14015;SDS011;7083;48.854;9.158;2023-03-04T05:33:26;1999.90;;;999.90;;
14015;SDS011;7083;48.854;9.158;2023-03-04T05:35:54;1999.90;;;999.90;;
14015;SDS011;7083;48.854;9.158;2023-03-04T05:38:21;1999.90;;;999.90;;
14015;SDS011;7083;48.854;9.158;2023-03-04T05:40:54;1999.90;;;999.90;;
14015;SDS011;7083;48.854;9.158;2023-03-04T05:43:22;1999.90;;;999.90;;
14015;SDS011;7083;48.854;9.158;2023-03-04T05:45:48;1999.90;;;999.90;;
14015;SDS011;7083;48.854;9.158;2023-03-04T05:48:15;1999.90;;;999.90;;
14015;SDS011;7083;48.854;9.158;2023-03-04T05:50:42;1999.90;;;999.90;;
14015;SDS011;7083;48.854;9.158;2023-03-04T05:53:10;1999.90;;;999.90;;
14015;SDS011;7083;48.854;9.158;2023-03-04T05:55:37;1999.90;;;999.90;;
14015;SDS011;7083;48.854;9.158;2023-03-04T05:58:03;1999.90;;;999.90;;
14015;SDS011;7083;48.854;9.158;2023-03-04T06:00:30;1999.90;;;999.90;;
14015;SDS011;7083;48.854;9.158;2023-03-04T06:02:57;1999.90;;;999.90;;
14015;SDS011;7083;48.854;9.158;2023-03-04T06:05:23;1999.90;;;999.90;;
14015;SDS011;7083;48.854;9.158;2023-03-04T06:07:50;1999.90;;;999.90;;
14015;SDS011;7083;48.854;9.158;2023-03-04T06:10:18;1999.90;;;999.90;;
14015;SDS011;7083;48.854;9.158;2023-03-04T06:12:45;1999.90;;;999.90;;
14015;SDS011;7083;48.854;9.158;2023-03-04T06:15:12;1999.90;;;999.90;;
14015;SDS011;7083;48.854;9.158;2023-03-04T06:17:39;1999.90;;;999.90;;
14015;SDS011;7083;48.854;9.158;2023-03-04T06:20:08;1999.90;;;999.90;;
14015;SDS011;7083;48.854;9.158;2023-03-04T06:22:36;1999.90;;;999.90;;
14015;SDS011;7083;48.854;9.158;2023-03-04T06:25:03;1999.90;;;999.90;;
14015;SDS011;7083;48.854;9.158;2023-03-04T06:27:32;1999.90;;;999.90;;
14015;SDS011;7083;48.854;9.158;2023-03-04T06:30:00;1999.90;;;999.90;;
14015;SDS011;7083;48.854;9.158;2023-03-04T06:32:26;1999.90;;;999.90;;
14015;SDS011;7083;48.854;9.158;2023-03-04T06:34:54;1999.90;;;999.90;;
14015;SDS011;7083;48.854;9.158;2023-03-04T06:37:21;1999.90;;;999.90;;
14015;SDS011;7083;48.854;9.158;2023-03-04T06:39:48;1999.90;;;999.90;;
14015;SDS011;7083;48.854;9.158;2023-03-04T06:42:15;1999.90;;;999.90;;
14015;SDS011;7083;48.854;9.158;2023-03-04T06:44:43;1999.90;;;999.90;;
14015;SDS011;7083;48.854;9.158;2023-03-04T06:47:10;1999.90;;;999.90;;
14015;SDS011;7083;48.854;9.158;2023-03-04T06:49:37;1999.90;;;999.90;;
14015;SDS011;7083;48.854;9.158;2023-03-04T06:52:03;1999.90;;;999.90;;
14015;SDS011;7083;48.854;9.158;2023-03-04T06:54:30;1999.90;;;999.90;;
14015;SDS011;7083;48.854;9.158;2023-03-04T06:56:57;1999.90;;;999.90;;
14015;SDS011;7083;48.854;9.158;2023-03-04T06:59:23;1999.90;;;999.90;;
14015;SDS011;7083;48.854;9.158;2023-03-04T07:01:51;1999.90;;;999.90;;
14015;SDS011;7083;48.854;9.158;2023-03-04T07:04:19;1382.27;;;713.53;;
14015;SDS011;7083;48.854;9.158;2023-03-04T07:06:46;154.43;;;147.53;;
14015;SDS011;7083;48.854;9.158;2023-03-04T07:09:13;179.73;;;171.23;;
14015;SDS011;7083;48.854;9.158;2023-03-04T07:11:40;209.13;;;199.30;;
14015;SDS011;7083;48.854;9.158;2023-03-04T07:14:07;197.80;;;189.47;;
14015;SDS011;7083;48.854;9.158;2023-03-04T07:16:33;205.63;;;196.77;;
14015;SDS011;7083;48.854;9.158;2023-03-04T07:19:01;208.27;;;199.23;;
14015;SDS011;7083;48.854;9.158;2023-03-04T07:21:28;199.27;;;190.67;;
14015;SDS011;7083;48.854;9.158;2023-03-04T07:23:55;189.13;;;180.63;;
14015;SDS011;7083;48.854;9.158;2023-03-04T07:26:21;165.33;;;158.07;;
14015;SDS011;7083;48.854;9.158;2023-03-04T07:28:48;162.83;;;155.63;;
14015;SDS011;7083;48.854;9.158;2023-03-04T07:31:18;160.83;;;153.93;;
14015;SDS011;7083;48.854;9.158;2023-03-04T07:33:47;150.93;;;144.23;;
14015;SDS011;7083;48.854;9.158;2023-03-04T07:36:15;142.83;;;136.30;;
14015;SDS011;7083;48.854;9.158;2023-03-04T07:38:44;137.83;;;131.90;;
14015;SDS011;7083;48.854;9.158;2023-03-04T07:41:11;133.13;;;126.90;;
14015;SDS011;7083;48.854;9.158;2023-03-04T07:43:38;127.10;;;120.83;;
14015;SDS011;7083;48.854;9.158;2023-03-04T07:46:05;136.30;;;130.27;;
14015;SDS011;7083;48.854;9.158;2023-03-04T07:48:31;141.80;;;135.67;;
14015;SDS011;7083;48.854;9.158;2023-03-04T07:51:02;152.70;;;145.93;;
14015;SDS011;7083;48.854;9.158;2023-03-04T07:53:35;160.83;;;153.90;;
14015;SDS011;7083;48.854;9.158;2023-03-04T07:56:03;176.50;;;168.73;;
14015;SDS011;7083;48.854;9.158;2023-03-04T07:58:31;190.83;;;182.97;;
14015;SDS011;7083;48.854;9.158;2023-03-04T08:00:58;186.20;;;178.53;;
14015;SDS011;7083;48.854;9.158;2023-03-04T08:03:24;201.70;;;193.17;;
14015;SDS011;7083;48.854;9.158;2023-03-04T08:05:53;211.93;;;202.87;;
14015;SDS011;7083;48.854;9.158;2023-03-04T08:08:20;255.03;;;244.70;;
14015;SDS011;7083;48.854;9.158;2023-03-04T08:10:48;266.90;;;255.80;;
14015;SDS011;7083;48.854;9.158;2023-03-04T08:13:14;268.67;;;257.43;;
14015;SDS011;7083;48.854;9.158;2023-03-04T08:15:41;268.53;;;257.13;;
14015;SDS011;7083;48.854;9.158;2023-03-04T08:18:08;288.33;;;276.40;;
14015;SDS011;7083;48.854;9.158;2023-03-04T08:20:35;284.00;;;271.53;;
14015;SDS011;7083;48.854;9.158;2023-03-04T08:23:02;306.57;;;293.90;;
14015;SDS011;7083;48.854;9.158;2023-03-04T08:25:29;275.80;;;264.73;;
14015;SDS011;7083;48.854;9.158;2023-03-04T08:27:57;292.90;;;280.47;;
14015;SDS011;7083;48.854;9.158;2023-03-04T08:30:24;1999.90;;;999.90;;
14015;SDS011;7083;48.854;9.158;2023-03-04T08:32:51;1999.90;;;999.90;;
14015;SDS011;7083;48.854;9.158;2023-03-04T08:35:17;228.00;;;218.27;;
14015;SDS011;7083;48.854;9.158;2023-03-04T08:37:44;225.77;;;216.10;;
14015;SDS011;7083;48.854;9.158;2023-03-04T08:40:11;203.00;;;194.40;;
14015;SDS011;7083;48.854;9.158;2023-03-04T08:42:39;193.63;;;185.27;;
14015;SDS011;7083;48.854;9.158;2023-03-04T08:45:08;161.87;;;154.77;;
14015;SDS011;7083;48.854;9.158;2023-03-04T08:47:35;166.87;;;159.67;;
14015;SDS011;7083;48.854;9.158;2023-03-04T08:50:03;168.53;;;161.43;;
14015;SDS011;7083;48.854;9.158;2023-03-04T08:52:31;198.23;;;189.63;;
14015;SDS011;7083;48.854;9.158;2023-03-04T08:54:58;200.40;;;191.93;;
14015;SDS011;7083;48.854;9.158;2023-03-04T08:57:24;191.57;;;183.20;;
14015;SDS011;7083;48.854;9.158;2023-03-04T08:59:51;215.60;;;206.33;;
14015;SDS011;7083;48.854;9.158;2023-03-04T09:02:19;209.33;;;200.43;;
14015;SDS011;7083;48.854;9.158;2023-03-04T09:04:46;217.90;;;208.63;;
14015;SDS011;7083;48.854;9.158;2023-03-04T09:07:12;1999.90;;;999.90;;
14015;SDS011;7083;48.854;9.158;2023-03-04T09:09:39;217.87;;;208.73;;
14015;SDS011;7083;48.854;9.158;2023-03-04T09:12:06;214.57;;;205.43;;
14015;SDS011;7083;48.854;9.158;2023-03-04T09:14:33;201.13;;;192.83;;
14015;SDS011;7083;48.854;9.158;2023-03-04T09:17:00;208.40;;;199.03;;
14015;SDS011;7083;48.854;9.158;2023-03-04T09:19:28;190.97;;;182.80;;
14015;SDS011;7083;48.854;9.158;2023-03-04T09:21:55;210.77;;;201.70;;
14015;SDS011;7083;48.854;9.158;2023-03-04T09:24:23;212.87;;;204.10;;
14015;SDS011;7083;48.854;9.158;2023-03-04T09:26:50;181.30;;;173.20;;
14015;SDS011;7083;48.854;9.158;2023-03-04T09:29:17;1405.20;;;735.40;;
14015;SDS011;7083;48.854;9.158;2023-03-04T09:31:44;216.43;;;207.47;;
14015;SDS011;7083;48.854;9.158;2023-03-04T09:34:11;232.10;;;222.43;;
14015;SDS011;7083;48.854;9.158;2023-03-04T09:36:39;253.37;;;242.67;;
14015;SDS011;7083;48.854;9.158;2023-03-04T09:39:05;242.93;;;233.20;;
14015;SDS011;7083;48.854;9.158;2023-03-04T09:41:35;234.80;;;225.10;;
14015;SDS011;7083;48.854;9.158;2023-03-04T09:44:04;219.90;;;210.23;;
14015;SDS011;7083;48.854;9.158;2023-03-04T09:46:38;198.33;;;189.77;;
14015;SDS011;7083;48.854;9.158;2023-03-04T09:49:06;198.47;;;190.10;;
14015;SDS011;7083;48.854;9.158;2023-03-04T09:51:41;186.43;;;178.43;;
14015;SDS011;7083;48.854;9.158;2023-03-04T09:54:15;151.83;;;145.30;;
14015;SDS011;7083;48.854;9.158;2023-03-04T09:56:49;145.37;;;139.23;;
14015;SDS011;7083;48.854;9.158;2023-03-04T09:59:21;146.97;;;140.50;;
14015;SDS011;7083;48.854;9.158;2023-03-04T10:01:51;155.93;;;148.83;;
14015;SDS011;7083;48.854;9.158;2023-03-04T10:04:23;161.80;;;154.60;;
14015;SDS011;7083;48.854;9.158;2023-03-04T10:06:56;238.40;;;228.17;;
14015;SDS011;7083;48.854;9.158;2023-03-04T10:09:24;215.70;;;206.77;;
14015;SDS011;7083;48.854;9.158;2023-03-04T10:11:54;323.20;;;309.57;;
14015;SDS011;7083;48.854;9.158;2023-03-04T10:14:30;1999.90;;;999.90;;
14015;SDS011;7083;48.854;9.158;2023-03-04T10:17:02;1460.33;;;788.37;;
14015;SDS011;7083;48.854;9.158;2023-03-04T10:19:36;1999.90;;;999.90;;
14015;SDS011;7083;48.854;9.158;2023-03-04T10:22:20;1457.27;;;785.33;;
14015;SDS011;7083;48.854;9.158;2023-03-04T10:24:52;1999.90;;;999.90;;
14015;SDS011;7083;48.854;9.158;2023-03-04T10:27:21;1999.90;;;999.90;;
14015;SDS011;7083;48.854;9.158;2023-03-04T10:29:49;1999.90;;;999.90;;
14015;SDS011;7083;48.854;9.158;2023-03-04T10:32:16;1999.90;;;999.90;;
14015;SDS011;7083;48.854;9.158;2023-03-04T10:34:44;1999.90;;;999.90;;
14015;SDS011;7083;48.854;9.158;2023-03-04T10:37:11;1382.30;;;713.33;;
14015;SDS011;7083;48.854;9.158;2023-03-04T10:39:40;1999.90;;;999.90;;
14015;SDS011;7083;48.854;9.158;2023-03-04T10:42:21;1999.90;;;999.90;;
14015;SDS011;7083;48.854;9.158;2023-03-04T10:44:51;1999.90;;;999.90;;
14015;SDS011;7083;48.854;9.158;2023-03-04T10:47:22;1999.90;;;999.90;;
14015;SDS011;7083;48.854;9.158;2023-03-04T10:49:50;1999.90;;;999.90;;
14015;SDS011;7083;48.854;9.158;2023-03-04T10:52:21;203.47;;;193.77;;
14015;SDS011;7083;48.854;9.158;2023-03-04T10:54:54;1382.63;;;713.67;;
14015;SDS011;7083;48.854;9.158;2023-03-04T10:57:23;268.03;;;255.90;;
14015;SDS011;7083;48.854;9.158;2023-03-04T10:59:56;290.77;;;277.30;;
14015;SDS011;7083;48.854;9.158;2023-03-04T11:02:25;1999.90;;;999.90;;
14015;SDS011;7083;48.854;9.158;2023-03-04T11:04:54;562.77;;;534.87;;
14015;SDS011;7083;48.854;9.158;2023-03-04T11:07:23;545.70;;;518.23;;
14015;SDS011;7083;48.854;9.158;2023-03-04T11:09:51;463.43;;;440.40;;
14015;SDS011;7083;48.854;9.158;2023-03-04T11:12:20;1999.90;;;999.90;;
14015;SDS011;7083;48.854;9.158;2023-03-04T11:14:56;1999.90;;;999.90;;
14015;SDS011;7083;48.854;9.158;2023-03-04T11:17:24;1999.90;;;999.90;;
14015;SDS011;7083;48.854;9.158;2023-03-04T11:19:53;1999.90;;;999.90;;
14015;SDS011;7083;48.854;9.158;2023-03-04T11:22:23;1999.90;;;999.90;;
14015;SDS011;7083;48.854;9.158;2023-03-04T11:24:56;1999.90;;;999.90;;
14015;SDS011;7083;48.854;9.158;2023-03-04T11:27:39;1999.90;;;999.90;;
14015;SDS011;7083;48.854;9.158;2023-03-04T11:30:18;1999.90;;;999.90;;
14015;SDS011;7083;48.854;9.158;2023-03-04T11:32:55;1999.90;;;999.90;;
14015;SDS011;7083;48.854;9.158;2023-03-04T11:35:29;1999.90;;;999.90;;
14015;SDS011;7083;48.854;9.158;2023-03-04T11:38:01;1999.90;;;999.90;;
14015;SDS011;7083;48.854;9.158;2023-03-04T11:40:34;1999.90;;;999.90;;
14015;SDS011;7083;48.854;9.158;2023-03-04T11:43:08;1999.90;;;999.90;;
14015;SDS011;7083;48.854;9.158;2023-03-04T11:45:47;1999.90;;;999.90;;
14015;SDS011;7083;48.854;9.158;2023-03-04T11:48:27;1999.90;;;999.90;;
14015;SDS011;7083;48.854;9.158;2023-03-04T11:51:07;1999.90;;;999.90;;
14015;SDS011;7083;48.854;9.158;2023-03-04T11:53:43;1999.90;;;999.90;;
14015;SDS011;7083;48.854;9.158;2023-03-04T11:56:24;1999.90;;;999.90;;
14015;SDS011;7083;48.854;9.158;2023-03-04T12:01:48;1999.90;;;999.90;;
14015;SDS011;7083;48.854;9.158;2023-03-04T12:04:27;1999.90;;;999.90;;
14015;SDS011;7083;48.854;9.158;2023-03-04T12:07:08;1999.90;;;999.90;;
14015;SDS011;7083;48.854;9.158;2023-03-04T12:09:46;1999.90;;;999.90;;
14015;SDS011;7083;48.854;9.158;2023-03-04T12:12:26;1999.90;;;999.90;;
14015;SDS011;7083;48.854;9.158;2023-03-04T12:15:07;1999.90;;;999.90;;
14015;SDS011;7083;48.854;9.158;2023-03-04T12:17:43;1999.90;;;999.90;;
14015;SDS011;7083;48.854;9.158;2023-03-04T12:20:23;1999.90;;;999.90;;
14015;SDS011;7083;48.854;9.158;2023-03-04T12:23:02;1999.90;;;999.90;;
14015;SDS011;7083;48.854;9.158;2023-03-04T12:25:40;1999.90;;;999.90;;
14015;SDS011;7083;48.854;9.158;2023-03-04T12:28:24;1999.90;;;999.90;;
14015;SDS011;7083;48.854;9.158;2023-03-04T12:31:10;1999.90;;;999.90;;
14015;SDS011;7083;48.854;9.158;2023-03-04T12:33:50;1999.90;;;999.90;;
14015;SDS011;7083;48.854;9.158;2023-03-04T12:36:30;1999.90;;;999.90;;
14015;SDS011;7083;48.854;9.158;2023-03-04T12:39:07;1999.90;;;999.90;;
14015;SDS011;7083;48.854;9.158;2023-03-04T12:41:48;1999.90;;;999.90;;
14015;SDS011;7083;48.854;9.158;2023-03-04T12:44:21;1999.90;;;999.90;;
14015;SDS011;7083;48.854;9.158;2023-03-04T12:46:55;1999.90;;;999.90;;
14015;SDS011;7083;48.854;9.158;2023-03-04T12:49:41;1999.90;;;999.90;;
14015;SDS011;7083;48.854;9.158;2023-03-04T12:52:18;1999.90;;;999.90;;
14015;SDS011;7083;48.854;9.158;2023-03-04T12:54:55;1999.90;;;999.90;;
14015;SDS011;7083;48.854;9.158;2023-03-04T12:57:23;1999.90;;;999.90;;
14015;SDS011;7083;48.854;9.158;2023-03-04T12:59:53;1999.90;;;999.90;;
14015;SDS011;7083;48.854;9.158;2023-03-04T13:05:30;1999.90;;;999.90;;
14015;SDS011;7083;48.854;9.158;2023-03-04T13:08:07;1999.90;;;999.90;;
14015;SDS011;7083;48.854;9.158;2023-03-04T13:10:40;1999.90;;;999.90;;
14015;SDS011;7083;48.854;9.158;2023-03-04T13:13:25;1999.90;;;999.90;;
14015;SDS011;7083;48.854;9.158;2023-03-04T13:16:00;1999.90;;;999.90;;
14015;SDS011;7083;48.854;9.158;2023-03-04T13:18:30;1999.90;;;999.90;;
14015;SDS011;7083;48.854;9.158;2023-03-04T13:21:06;1999.90;;;999.90;;
14015;SDS011;7083;48.854;9.158;2023-03-04T13:23:46;1999.90;;;999.90;;
14015;SDS011;7083;48.854;9.158;2023-03-04T13:26:17;1999.90;;;999.90;;
14015;SDS011;7083;48.854;9.158;2023-03-04T13:28:51;1999.90;;;999.90;;
14015;SDS011;7083;48.854;9.158;2023-03-04T13:31:20;1999.90;;;999.90;;
14015;SDS011;7083;48.854;9.158;2023-03-04T13:33:55;1999.90;;;999.90;;
14015;SDS011;7083;48.854;9.158;2023-03-04T13:36:32;1999.90;;;999.90;;
14015;SDS011;7083;48.854;9.158;2023-03-04T13:39:27;1999.90;;;999.90;;
14015;SDS011;7083;48.854;9.158;2023-03-04T13:41:56;1999.90;;;999.90;;
14015;SDS011;7083;48.854;9.158;2023-03-04T13:44:30;1999.90;;;999.90;;
14015;SDS011;7083;48.854;9.158;2023-03-04T13:47:13;1999.90;;;999.90;;
14015;SDS011;7083;48.854;9.158;2023-03-04T13:49:42;1999.90;;;999.90;;
14015;SDS011;7083;48.854;9.158;2023-03-04T13:58:01;1999.90;;;999.90;;
14015;SDS011;7083;48.854;9.158;2023-03-04T14:00:44;1999.90;;;999.90;;
14015;SDS011;7083;48.854;9.158;2023-03-04T14:03:20;1999.90;;;999.90;;
14015;SDS011;7083;48.854;9.158;2023-03-04T14:08:36;1999.90;;;999.90;;
14015;SDS011;7083;48.854;9.158;2023-03-04T14:11:02;1999.90;;;999.90;;
14015;SDS011;7083;48.854;9.158;2023-03-04T14:13:29;1999.90;;;999.90;;
14015;SDS011;7083;48.854;9.158;2023-03-04T14:15:57;1999.90;;;999.90;;
14015;SDS011;7083;48.854;9.158;2023-03-04T14:18:25;1999.90;;;999.90;;
14015;SDS011;7083;48.854;9.158;2023-03-04T14:20:53;1999.90;;;999.90;;
14015;SDS011;7083;48.854;9.158;2023-03-04T14:23:24;1999.90;;;999.90;;
14015;SDS011;7083;48.854;9.158;2023-03-04T14:26:03;1999.90;;;999.90;;
14015;SDS011;7083;48.854;9.158;2023-03-04T14:28:31;1999.90;;;999.90;;